Ns Clipper — A8GW6 — position and weather

sailwx.info

Track history (hours):
 
Tides and Currents Weather Stations Pressure Air Temp Water Temp Dewpoint Dewpoint Depression Visibility Wind Speed Wind Dir Waves Ship Positions

Ns Clipper

Last reported at 2015-Apr-26 14:16 UTC. Time now 2015-May-04 10:02 UTC.
Position N 24°30' W 080°03'.

Length 243 m; draft 8.7 m.

Type: Tanker. MMSI: 636012661.

Date/timePositionNaut miles runAvg speedWind from/ knotsBaromVisibWave heightAir tempDewpointWater temp
2015-Apr-26 14:16N 24°30' W 080°03'710.0
2015-Apr-26 13:33N 24°35' W 079°57'1110.7
2015-Apr-26 12:33N 24°42' W 079°48'1211.4
2015-Apr-26 11:31N 24°49' W 079°38'2511.2
2015-Apr-26 09:16N 25°13' W 079°29'911.9
2015-Apr-26 08:33N 25°21' W 079°28'1212.1
2015-Apr-26 07:33N 25°33' W 079°28'1212.1
2015-Apr-26 06:31N 25°46' W 079°27'1111.7
2015-Apr-26 05:32N 25°57' W 079°26'1111.1
2015-Apr-26 04:33N 26°08' W 079°25'1110.8
2015-Apr-26 03:31N 26°20' W 079°24'1310.7
2015-Apr-26 02:16N 26°33' W 079°24'  
2015-Apr-23 05:33N 38°27' W 074°44'1313.2
2015-Apr-23 04:33N 38°38' W 074°54'1212.3
2015-Apr-23 03:33N 38°48' W 075°03'1010.0
2015-Apr-23 02:33N 38°57' W 075°07'1211.8
2015-Apr-23 01:33N 39°08' W 075°14'1414.3
2015-Apr-23 00:34N 39°19' W 075°24'1414.1
2015-Apr-22 23:33N 39°32' W 075°33'1212.3
2015-Apr-22 22:33N 39°44' W 075°30'1110.6
2015-Apr-22 21:33N 39°51' W 075°19'2 2.3
2015-Apr-22 20:31N 39°51' W 075°16'0 0.0
2015-Apr-22 19:31N 39°51' W 075°16'0 0.0
2015-Apr-22 18:34N 39°51' W 075°16'0 0.0
2015-Apr-22 17:34N 39°51' W 075°16'0 0.0
2015-Apr-22 16:34N 39°51' W 075°16'0 0.0
2015-Apr-22 15:34N 39°51' W 075°16'0 0.0
2015-Apr-22 14:33N 39°51' W 075°16'0 0.0
2015-Apr-22 13:33N 39°51' W 075°16'0 0.0
2015-Apr-22 12:33N 39°51' W 075°16'0 0.0
2015-Apr-22 11:33N 39°51' W 075°16'0 0.0
2015-Apr-22 10:33N 39°51' W 075°16'0 0.0
2015-Apr-22 09:34N 39°51' W 075°16'0 0.0
2015-Apr-22 08:33N 39°51' W 075°16'0 0.0
2015-Apr-22 07:33N 39°51' W 075°16'0 0.0
2015-Apr-22 06:33N 39°51' W 075°16'0 0.0
2015-Apr-22 05:33N 39°51' W 075°16'0 0.0
2015-Apr-22 04:33N 39°51' W 075°16'0 0.0
2015-Apr-22 03:33N 39°51' W 075°16'0 0.0
2015-Apr-22 02:33N 39°51' W 075°16'0 0.0
2015-Apr-22 01:32N 39°51' W 075°16'0 0.0
2015-Apr-22 00:33N 39°51' W 075°16'0 0.0
2015-Apr-21 23:33N 39°51' W 075°16'0 0.0
2015-Apr-21 22:33N 39°51' W 075°16'1 0.8
2015-Apr-21 21:33N 39°51' W 075°17'8 7.7
2015-Apr-21 20:33N 39°48' W 075°26'1110.3
2015-Apr-21 19:32N 39°39' W 075°33'1010.5
2015-Apr-21 18:33N 39°28' W 075°34'1211.8
2015-Apr-21 17:33N 39°19' W 075°24'1211.8
2015-Apr-21 16:33N 39°10' W 075°15'1111.4
2015-Apr-21 15:34N 38°60' W 075°08'1111.4
2015-Apr-21 14:33N 38°49' W 075°03'7 7.3
2015-Apr-21 13:33N 38°44' W 074°56'9 9.4
2015-Apr-21 12:33N 38°36' W 074°49'  
2015-Apr-18 12:11N 38°30' W 074°38'2 2.8
2015-Apr-18 11:33N 38°29' W 074°38'9 8.6
2015-Apr-18 10:33N 38°20' W 074°36'  
Track history (hours):
 
Tides and Currents Weather Stations Pressure Air Temp Water Temp Dewpoint Dewpoint Depression Visibility Wind Speed Wind Dir Waves Ship Positions

Ns Clipper

Last reported at 2015-Apr-26 14:16 UTC. Time now 2015-May-04 10:02 UTC.
Position N 24°30' W 080°03'.

Length 243 m; draft 8.7 m.

Type: Tanker. MMSI: 636012661.

Date/timePositionNaut miles runAvg speedWind from/ knotsBaromVisibWave heightAir tempDewpointWater temp
2015-Apr-26 14:16N 24°30' W 080°03'710.0
2015-Apr-26 13:33N 24°35' W 079°57'1110.7
2015-Apr-26 12:33N 24°42' W 079°48'1211.4
2015-Apr-26 11:31N 24°49' W 079°38'2511.2
2015-Apr-26 09:16N 25°13' W 079°29'911.9
2015-Apr-26 08:33N 25°21' W 079°28'1212.1
2015-Apr-26 07:33N 25°33' W 079°28'1212.1
2015-Apr-26 06:31N 25°46' W 079°27'1111.7
2015-Apr-26 05:32N 25°57' W 079°26'1111.1
2015-Apr-26 04:33N 26°08' W 079°25'1110.8
2015-Apr-26 03:31N 26°20' W 079°24'1310.7
2015-Apr-26 02:16N 26°33' W 079°24'  
2015-Apr-23 05:33N 38°27' W 074°44'1313.2
2015-Apr-23 04:33N 38°38' W 074°54'1212.3
2015-Apr-23 03:33N 38°48' W 075°03'1010.0
2015-Apr-23 02:33N 38°57' W 075°07'1211.8
2015-Apr-23 01:33N 39°08' W 075°14'1414.3
2015-Apr-23 00:34N 39°19' W 075°24'1414.1
2015-Apr-22 23:33N 39°32' W 075°33'1212.3
2015-Apr-22 22:33N 39°44' W 075°30'1110.6
2015-Apr-22 21:33N 39°51' W 075°19'2 2.3
2015-Apr-22 20:31N 39°51' W 075°16'0 0.0
2015-Apr-22 19:31N 39°51' W 075°16'0 0.0
2015-Apr-22 18:34N 39°51' W 075°16'0 0.0
2015-Apr-22 17:34N 39°51' W 075°16'0 0.0
2015-Apr-22 16:34N 39°51' W 075°16'0 0.0
2015-Apr-22 15:34N 39°51' W 075°16'0 0.0
2015-Apr-22 14:33N 39°51' W 075°16'0 0.0
2015-Apr-22 13:33N 39°51' W 075°16'0 0.0
2015-Apr-22 12:33N 39°51' W 075°16'0 0.0
2015-Apr-22 11:33N 39°51' W 075°16'0 0.0
2015-Apr-22 10:33N 39°51' W 075°16'0 0.0
2015-Apr-22 09:34N 39°51' W 075°16'0 0.0
2015-Apr-22 08:33N 39°51' W 075°16'0 0.0
2015-Apr-22 07:33N 39°51' W 075°16'0 0.0
2015-Apr-22 06:33N 39°51' W 075°16'0 0.0
2015-Apr-22 05:33N 39°51' W 075°16'0 0.0
2015-Apr-22 04:33N 39°51' W 075°16'0 0.0
2015-Apr-22 03:33N 39°51' W 075°16'0 0.0
2015-Apr-22 02:33N 39°51' W 075°16'0 0.0
2015-Apr-22 01:32N 39°51' W 075°16'0 0.0
2015-Apr-22 00:33N 39°51' W 075°16'0 0.0
2015-Apr-21 23:33N 39°51' W 075°16'0 0.0
2015-Apr-21 22:33N 39°51' W 075°16'1 0.8
2015-Apr-21 21:33N 39°51' W 075°17'8 7.7
2015-Apr-21 20:33N 39°48' W 075°26'1110.3
2015-Apr-21 19:32N 39°39' W 075°33'1010.5
2015-Apr-21 18:33N 39°28' W 075°34'1211.8
2015-Apr-21 17:33N 39°19' W 075°24'1211.8
2015-Apr-21 16:33N 39°10' W 075°15'1111.4
2015-Apr-21 15:34N 38°60' W 075°08'1111.4
2015-Apr-21 14:33N 38°49' W 075°03'7 7.3
2015-Apr-21 13:33N 38°44' W 074°56'9 9.4
2015-Apr-21 12:33N 38°36' W 074°49'  
2015-Apr-18 12:11N 38°30' W 074°38'2 2.8
2015-Apr-18 11:33N 38°29' W 074°38'9 8.6
2015-Apr-18 10:33N 38°20' W 074°36'  

Dump ship's entire track history